createdAt,value
2023-01-11T00:01:56.829Z,8.73
2023-01-11T00:04:30.093Z,7.97
2023-01-11T00:06:58.206Z,8.68
2023-01-11T00:09:25.549Z,9.35
2023-01-11T00:11:53.323Z,9.02
2023-01-11T00:14:21.503Z,9.80
2023-01-11T00:16:49.013Z,9.32
2023-01-11T00:19:17.124Z,9.50
2023-01-11T00:21:44.782Z,8.20
2023-01-11T00:24:12.067Z,10.57
2023-01-11T00:26:39.572Z,10.15
2023-01-11T00:29:06.842Z,9.32
2023-01-11T00:31:34.441Z,10.55
2023-01-11T00:34:01.658Z,9.93
2023-01-11T00:36:29.171Z,10.57
2023-01-11T00:38:56.538Z,10.23
2023-01-11T00:41:42.939Z,9.20
2023-01-11T00:44:30.414Z,10.48
2023-01-11T00:47:16.927Z,8.52
2023-01-11T00:49:44.515Z,9.20
2023-01-11T00:52:12.070Z,10.45
2023-01-11T00:54:40.872Z,9.77
2023-01-11T00:57:08.941Z,10.48
2023-01-11T00:59:39.152Z,9.90
2023-01-11T01:02:08.003Z,8.57
2023-01-11T01:04:35.319Z,10.68
2023-01-11T01:07:03.588Z,9.95
2023-01-11T01:09:30.974Z,9.60
2023-01-11T01:11:59.131Z,9.98
2023-01-11T01:14:26.786Z,9.88
2023-01-11T01:16:56.944Z,11.38
2023-01-11T01:19:27.596Z,10.80
2023-01-11T01:21:56.975Z,10.23
2023-01-11T01:24:25.242Z,10.23
2023-01-11T01:26:52.749Z,10.15
2023-01-11T01:29:20.089Z,7.82
2023-01-11T01:31:47.664Z,9.90
2023-01-11T01:34:15.455Z,8.65
2023-01-11T01:36:43.061Z,11.98
2023-01-11T01:39:11.816Z,10.23
2023-01-11T01:41:39.675Z,10.30
2023-01-11T01:44:44.562Z,11.57
2023-01-11T01:47:12.691Z,10.68
2023-01-11T01:49:41.014Z,10.65
2023-01-11T01:52:09.342Z,9.48
2023-01-11T01:54:40.752Z,11.93
2023-01-11T01:57:17.401Z,9.13
2023-01-11T01:59:45.774Z,9.45
2023-01-11T02:02:13.364Z,9.38
2023-01-11T02:04:44.474Z,9.88
2023-01-11T02:07:19.423Z,11.63
2023-01-11T02:10:00.656Z,10.30
2023-01-11T02:12:50.447Z,8.82
2023-01-11T02:15:20.851Z,9.73
2023-01-11T02:17:48.469Z,9.25
2023-01-11T02:20:34.665Z,9.32
2023-01-11T02:23:08.936Z,9.80
2023-01-11T02:25:57.563Z,8.68
2023-01-11T02:29:02.901Z,9.07
2023-01-11T02:31:36.435Z,9.43
2023-01-11T02:34:41.881Z,9.60
2023-01-11T02:37:21.808Z,9.85
2023-01-11T02:39:59.923Z,9.65
2023-01-11T02:42:57.510Z,11.60
2023-01-11T02:45:36.819Z,10.30
2023-01-11T02:48:10.719Z,10.02
2023-01-11T02:50:48.427Z,9.50
2023-01-11T02:53:32.168Z,8.95
2023-01-11T02:56:05.972Z,9.15
2023-01-11T02:58:36.854Z,11.25
2023-01-11T03:01:04.832Z,9.32
2023-01-11T03:03:33.701Z,9.68
2023-01-11T03:06:05.435Z,9.52
2023-01-11T03:08:44.435Z,10.45
2023-01-11T03:11:37.525Z,9.73
2023-01-11T03:14:47.422Z,9.38
2023-01-11T03:17:26.665Z,9.77
2023-01-11T03:20:01.653Z,9.10
2023-01-11T03:22:32.972Z,11.40
2023-01-11T03:25:42.334Z,9.23
2023-01-11T03:28:21.127Z,10.65
2023-01-11T03:31:21.431Z,10.43
2023-01-11T03:34:07.182Z,9.07
2023-01-11T03:36:40.254Z,9.23
2023-01-11T03:39:27.822Z,10.45
2023-01-11T03:41:59.631Z,9.55
2023-01-11T03:44:38.992Z,8.52
2023-01-11T03:47:10.381Z,9.00
2023-01-11T03:49:43.115Z,11.02
2023-01-11T03:52:13.423Z,10.43
2023-01-11T03:54:41.939Z,9.15
2023-01-11T03:57:25.676Z,8.70
2023-01-11T03:59:53.519Z,9.55
2023-01-11T04:02:25.672Z,10.15
2023-01-11T04:04:53.427Z,8.38
2023-01-11T04:07:20.705Z,9.38
2023-01-11T04:09:48.253Z,9.07
2023-01-11T04:12:15.525Z,10.65
2023-01-11T04:14:43.072Z,10.35
2023-01-11T04:17:10.344Z,10.20
2023-01-11T04:19:37.858Z,9.88
2023-01-11T04:22:05.086Z,9.55
2023-01-11T04:24:32.726Z,8.75
2023-01-11T04:27:00.312Z,9.18
2023-01-11T04:29:27.807Z,10.10
2023-01-11T04:31:55.168Z,11.30
2023-01-11T04:34:22.980Z,9.02
2023-01-11T04:36:50.627Z,8.75
2023-01-11T04:39:18.152Z,8.70
2023-01-11T04:42:03.635Z,9.88
2023-01-11T04:44:31.207Z,9.00
2023-01-11T04:46:58.409Z,9.73
2023-01-11T04:49:26.383Z,9.43
2023-01-11T04:51:53.624Z,8.25
2023-01-11T04:54:21.149Z,7.75
2023-01-11T04:56:49.083Z,8.38
2023-01-11T04:59:16.714Z,9.05
2023-01-11T05:01:43.988Z,9.02
2023-01-11T05:04:13.410Z,8.95
2023-01-11T05:06:41.541Z,11.25
2023-01-11T05:09:17.115Z,9.63
2023-01-11T05:11:44.986Z,8.18
2023-01-11T05:14:13.052Z,7.57
2023-01-11T05:16:41.010Z,10.43
2023-01-11T05:19:10.754Z,9.70
2023-01-11T05:21:40.541Z,9.82
2023-01-11T05:24:11.884Z,8.02
2023-01-11T05:26:41.288Z,9.50
2023-01-11T05:29:12.078Z,9.23
2023-01-11T05:31:40.893Z,9.25
2023-01-11T05:34:12.828Z,9.70
2023-01-11T05:36:40.679Z,9.55
2023-01-11T05:39:09.155Z,8.90
2023-01-11T05:41:36.470Z,10.02
2023-01-11T05:44:23.722Z,8.32
2023-01-11T05:46:50.996Z,8.50
2023-01-11T05:49:18.635Z,10.25
2023-01-11T05:51:45.895Z,9.13
2023-01-11T05:54:14.863Z,10.68
2023-01-11T05:56:42.939Z,11.57
2023-01-11T05:59:11.067Z,9.77
2023-01-11T06:01:38.692Z,11.15
2023-01-11T06:04:06.407Z,9.98
2023-01-11T06:06:33.993Z,10.27
2023-01-11T06:09:01.558Z,9.43
2023-01-11T06:11:28.879Z,11.45
2023-01-11T06:13:56.580Z,8.20
2023-01-11T06:16:24.079Z,10.38
2023-01-11T06:18:53.044Z,10.27
2023-01-11T06:21:20.756Z,10.70
2023-01-11T06:23:53.080Z,11.05
2023-01-11T06:26:22.172Z,10.55
2023-01-11T06:28:50.758Z,11.45
2023-01-11T06:31:18.756Z,9.90
2023-01-11T06:33:47.156Z,10.38
2023-01-11T06:36:15.825Z,10.98
2023-01-11T06:38:43.965Z,11.30
2023-01-11T06:41:12.757Z,10.25
2023-01-11T06:43:41.889Z,9.63
2023-01-11T06:46:14.246Z,8.07
2023-01-11T06:48:42.481Z,11.15
2023-01-11T06:51:12.637Z,11.43
2023-01-11T06:53:41.797Z,12.18
2023-01-11T06:56:17.508Z,9.45
2023-01-11T06:58:47.614Z,7.93
2023-01-11T07:01:16.904Z,11.75
2023-01-11T07:03:45.454Z,9.95
2023-01-11T07:06:13.781Z,9.75
2023-01-11T07:08:42.596Z,9.43
2023-01-11T07:11:09.974Z,10.52
2023-01-11T07:13:37.684Z,11.23
2023-01-11T07:16:05.005Z,9.60
2023-01-11T07:18:33.416Z,10.23
2023-01-11T07:21:00.706Z,10.43
2023-01-11T07:23:28.266Z,10.20
2023-01-11T07:25:55.673Z,10.55
2023-01-11T07:28:23.378Z,10.75
2023-01-11T07:30:59.760Z,10.98
2023-01-11T07:33:27.845Z,9.27
2023-01-11T07:35:55.394Z,9.73
2023-01-11T07:38:23.184Z,10.20
2023-01-11T07:40:50.567Z,10.05
2023-01-11T07:43:19.865Z,8.98
2023-01-11T07:45:49.429Z,10.02
2023-01-11T07:48:24.786Z,10.05
2023-01-11T07:50:53.144Z,8.30
2023-01-11T07:53:21.242Z,10.60
2023-01-11T07:55:48.600Z,11.63
2023-01-11T07:58:16.334Z,10.88
2023-01-11T08:00:44.114Z,9.60
2023-01-11T08:03:11.955Z,11.15
2023-01-11T08:05:40.541Z,9.75
2023-01-11T08:08:08.313Z,9.88
2023-01-11T08:10:35.674Z,10.18
2023-01-11T08:13:22.067Z,11.10
2023-01-11T08:15:49.463Z,9.43
2023-01-11T08:18:17.484Z,12.00
2023-01-11T08:20:45.683Z,11.07
2023-01-11T08:23:13.421Z,9.32
2023-01-11T08:25:40.858Z,10.18
2023-01-11T08:28:08.881Z,10.73
2023-01-11T08:30:37.346Z,16.23
2023-01-11T08:33:05.545Z,10.60
2023-01-11T08:35:38.440Z,13.55
2023-01-11T08:38:07.011Z,11.73
2023-01-11T08:40:34.286Z,12.93
2023-01-11T08:43:02.506Z,9.68
2023-01-11T08:45:29.805Z,9.85
2023-01-11T08:47:59.595Z,10.05
2023-01-11T08:50:27.049Z,9.93
2023-01-11T08:52:54.756Z,10.85
2023-01-11T08:55:22.019Z,10.73
2023-01-11T08:57:49.585Z,9.70
2023-01-11T09:00:18.585Z,10.45
2023-01-11T09:02:46.294Z,12.60
2023-01-11T09:05:13.639Z,10.75
2023-01-11T09:07:41.233Z,10.32
2023-01-11T09:10:09.085Z,10.98
2023-01-11T09:12:36.709Z,11.77
2023-01-11T09:15:05.852Z,11.00
2023-01-11T09:17:33.923Z,10.38
2023-01-11T09:20:01.475Z,10.45
2023-01-11T09:22:29.151Z,8.70
2023-01-11T09:24:58.946Z,10.35
2023-01-11T09:27:26.671Z,11.55
2023-01-11T09:29:53.928Z,9.07
2023-01-11T09:32:21.806Z,9.15
2023-01-11T09:34:49.833Z,10.77
2023-01-11T09:37:17.464Z,8.82
2023-01-11T09:39:45.384Z,12.35
2023-01-11T09:42:36.545Z,11.13
2023-01-11T09:45:07.177Z,11.02
2023-01-11T09:47:41.102Z,9.40
2023-01-11T09:50:40.037Z,10.88
2023-01-11T09:53:20.640Z,10.40
2023-01-11T09:55:52.143Z,10.80
2023-01-11T09:58:29.158Z,10.43
2023-01-11T10:01:21.597Z,10.85
2023-01-11T10:04:15.868Z,12.15
2023-01-11T10:07:10.216Z,10.93
2023-01-11T10:18:28.167Z,11.63
2023-01-11T10:19:37.358Z,10.80
2023-01-11T10:22:19.414Z,11.00
2023-01-11T10:25:00.198Z,12.55
2023-01-11T10:27:32.641Z,10.13
2023-01-11T10:30:31.957Z,10.80
2023-01-11T10:34:03.916Z,10.13
2023-01-11T10:36:56.529Z,10.45
2023-01-11T10:40:16.005Z,10.05
2023-01-11T10:43:07.609Z,9.60
2023-01-11T10:45:44.297Z,11.45
2023-01-11T10:48:23.812Z,13.30
2023-01-11T10:51:03.566Z,11.65
2023-01-11T10:53:47.843Z,11.13
2023-01-11T10:56:21.592Z,11.53
2023-01-11T10:59:22.019Z,11.45
2023-01-11T11:01:59.285Z,10.15
2023-01-11T11:04:35.518Z,11.95
2023-01-11T11:07:35.601Z,11.88
2023-01-11T11:10:21.705Z,9.07
2023-01-11T11:13:16.443Z,11.27
2023-01-11T11:16:02.231Z,9.85
2023-01-11T11:18:29.844Z,10.65
2023-01-11T11:21:10.171Z,11.70
2023-01-11T11:23:38.919Z,10.73
2023-01-11T11:26:07.307Z,12.35
2023-01-11T11:28:34.977Z,11.10
2023-01-11T11:31:05.732Z,10.65
2023-01-11T11:33:40.764Z,10.75
2023-01-11T11:36:13.702Z,10.68
2023-01-11T11:39:00.424Z,10.15
2023-01-11T11:41:27.685Z,9.98
2023-01-11T11:44:14.758Z,10.35
2023-01-11T11:46:56.792Z,9.73
2023-01-11T11:49:24.432Z,9.75
2023-01-11T11:51:53.144Z,10.60
2023-01-11T11:54:36.762Z,10.90
2023-01-11T11:57:20.142Z,11.63
2023-01-11T11:59:49.884Z,10.57
2023-01-11T12:02:29.900Z,11.35
2023-01-11T12:05:05.338Z,11.50
2023-01-11T12:10:25.373Z,11.48
2023-01-11T12:13:01.656Z,10.98
2023-01-11T12:15:31.353Z,10.60
2023-01-11T12:18:27.229Z,11.73
2023-01-11T12:20:55.233Z,10.43
2023-01-11T12:23:24.691Z,10.88
2023-01-11T12:26:05.169Z,10.48
2023-01-11T12:28:41.445Z,10.70
2023-01-11T12:31:39.591Z,10.27
2023-01-11T12:34:47.231Z,10.70
2023-01-11T12:37:50.638Z,11.52
2023-01-11T12:40:54.694Z,10.50
2023-01-11T12:43:36.685Z,10.70
2023-01-11T12:46:13.207Z,10.45
2023-01-11T12:49:01.753Z,11.48
2023-01-11T12:51:50.789Z,9.00
2023-01-11T12:54:33.362Z,9.50
2023-01-11T12:57:19.569Z,10.85
2023-01-11T13:00:08.535Z,9.60
2023-01-11T13:02:54.415Z,10.98
2023-01-11T13:05:31.811Z,9.50
2023-01-11T13:08:16.975Z,11.70
2023-01-11T13:13:32.856Z,9.38
2023-01-11T13:16:14.090Z,9.80
2023-01-11T13:18:59.193Z,10.45
2023-01-11T13:21:52.835Z,10.05
2023-01-11T13:24:28.815Z,12.55
2023-01-11T13:27:20.650Z,10.13
2023-01-11T13:29:52.372Z,11.70
2023-01-11T13:32:32.670Z,9.68
2023-01-11T13:35:04.594Z,10.75
2023-01-11T13:37:47.046Z,9.85
2023-01-11T13:40:33.910Z,10.35
2023-01-11T13:43:16.044Z,10.27
2023-01-11T13:45:59.577Z,9.02
2023-01-11T13:48:44.339Z,9.40
2023-01-11T13:51:14.540Z,9.35
2023-01-11T13:54:05.731Z,11.45
2023-01-11T13:56:36.788Z,10.48
2023-01-11T13:59:21.861Z,10.10
2023-01-11T14:02:03.485Z,10.27
2023-01-11T14:04:47.577Z,10.77
2023-01-11T14:07:44.502Z,11.77
2023-01-11T14:10:30.913Z,10.38
2023-01-11T14:13:48.241Z,11.93
2023-01-11T14:16:44.414Z,10.88
2023-01-11T14:22:05.580Z,12.57
2023-01-11T14:24:37.803Z,10.63
2023-01-11T14:27:40.042Z,11.27
2023-01-11T14:30:17.957Z,10.90
2023-01-11T14:33:13.958Z,10.35
2023-01-11T14:36:05.534Z,9.15
2023-01-11T14:38:56.899Z,10.60
2023-01-11T14:42:01.655Z,10.75
2023-01-11T14:45:01.856Z,9.68
2023-01-11T14:48:03.703Z,11.30
2023-01-11T14:51:33.138Z,10.93
2023-01-11T14:54:09.096Z,10.48
2023-01-11T14:56:42.371Z,11.88
2023-01-11T14:59:40.145Z,11.50
2023-01-11T15:02:15.183Z,12.05
2023-01-11T15:04:51.744Z,11.25
2023-01-11T15:07:24.608Z,10.25
2023-01-11T15:09:53.678Z,11.27
2023-01-11T15:12:24.083Z,11.20
2023-01-11T15:15:07.125Z,10.90
2023-01-11T15:17:53.545Z,10.65
2023-01-11T15:20:23.036Z,12.02
2023-01-11T15:23:16.116Z,10.57
2023-01-11T15:25:47.748Z,11.48
2023-01-11T15:28:40.471Z,10.98
2023-01-11T15:31:29.063Z,10.57
2023-01-11T15:34:23.309Z,12.00
2023-01-11T15:37:12.173Z,11.73
2023-01-11T15:39:48.993Z,9.68
2023-01-11T15:42:16.268Z,11.25
2023-01-11T15:45:17.286Z,10.75
2023-01-11T15:47:50.364Z,11.00
2023-01-11T15:50:39.498Z,10.20
2023-01-11T15:53:33.806Z,11.65
2023-01-11T15:56:46.214Z,11.07
2023-01-11T15:59:45.135Z,10.20
2023-01-11T16:02:18.432Z,12.80
2023-01-11T16:04:51.193Z,10.75
2023-01-11T16:07:33.429Z,10.80
2023-01-11T16:10:14.764Z,9.98
2023-01-11T16:13:01.053Z,12.60
2023-01-11T16:15:47.296Z,10.98
2023-01-11T16:18:27.819Z,12.57
2023-01-11T16:21:08.363Z,11.88
2023-01-11T16:23:36.207Z,10.93
2023-01-11T16:26:04.943Z,11.65
2023-01-11T16:28:32.621Z,12.23
2023-01-11T16:31:05.980Z,12.38
2023-01-11T16:33:34.698Z,12.45
2023-01-11T16:36:21.857Z,12.25
2023-01-11T16:39:13.067Z,12.00
2023-01-11T16:41:53.534Z,12.73
2023-01-11T16:44:43.590Z,11.27
2023-01-11T16:47:15.296Z,10.95
2023-01-11T16:49:49.283Z,13.30
2023-01-11T16:52:28.629Z,13.30
2023-01-11T16:54:58.252Z,13.55
2023-01-11T16:57:35.755Z,12.75
2023-01-11T17:00:20.960Z,11.75
2023-01-11T17:02:50.915Z,12.90
2023-01-11T17:05:24.023Z,12.77
2023-01-11T17:07:51.327Z,12.68
2023-01-11T17:10:18.902Z,11.27
2023-01-11T17:12:50.818Z,13.18
2023-01-11T17:15:30.716Z,13.02
2023-01-11T17:18:03.187Z,13.90
2023-01-11T17:20:31.658Z,12.63
2023-01-11T17:22:59.933Z,12.98
2023-01-11T17:25:43.539Z,13.70
2023-01-11T17:28:18.349Z,13.77
2023-01-11T17:30:50.144Z,14.03
2023-01-11T17:33:33.057Z,19.60
2023-01-11T17:36:01.759Z,17.55
2023-01-11T17:38:30.186Z,17.98
2023-01-11T17:40:58.645Z,21.50
2023-01-11T17:43:47.156Z,21.10
2023-01-11T17:46:19.915Z,27.08
2023-01-11T17:48:58.805Z,22.73
2023-01-11T17:51:30.967Z,22.95
2023-01-11T17:53:58.300Z,26.38
2023-01-11T17:56:41.764Z,29.17
2023-01-11T17:59:11.672Z,21.30
2023-01-11T18:01:39.695Z,23.35
2023-01-11T18:04:19.142Z,28.42
2023-01-11T18:06:48.745Z,26.60
2023-01-11T18:09:29.151Z,23.45
2023-01-11T18:12:16.469Z,23.63
2023-01-11T18:14:49.352Z,22.55
2023-01-11T18:17:32.090Z,23.48
2023-01-11T18:20:01.183Z,20.92
2023-01-11T18:22:42.754Z,22.40
2023-01-11T18:25:19.334Z,21.98
2023-01-11T18:27:47.578Z,22.88
2023-01-11T18:30:30.227Z,29.70
2023-01-11T18:33:03.530Z,22.10
2023-01-11T18:35:30.962Z,24.13
2023-01-11T18:37:58.628Z,22.35
2023-01-11T18:40:25.964Z,22.40
2023-01-11T18:42:54.542Z,24.30
2023-01-11T18:45:24.854Z,22.95
2023-01-11T18:47:52.711Z,20.60
2023-01-11T18:50:20.860Z,24.10
2023-01-11T18:52:48.528Z,25.92
2023-01-11T18:55:16.579Z,24.35
2023-01-11T18:57:44.123Z,25.10
2023-01-11T19:00:15.099Z,20.60
2023-01-11T19:02:44.044Z,21.52
2023-01-11T19:05:13.882Z,22.77
2023-01-11T19:07:41.645Z,21.20
2023-01-11T19:10:10.768Z,22.38
2023-01-11T19:12:38.460Z,20.83
2023-01-11T19:15:06.153Z,24.13
2023-01-11T19:17:33.703Z,20.83
2023-01-11T19:20:01.021Z,20.00
2023-01-11T19:22:29.047Z,24.52
2023-01-11T19:24:56.417Z,23.35
2023-01-11T19:27:24.128Z,24.15
2023-01-11T19:29:52.640Z,22.38
2023-01-11T19:32:26.363Z,24.33
2023-01-11T19:34:57.897Z,22.95
2023-01-11T19:37:27.297Z,23.23
2023-01-11T19:39:54.577Z,20.13
2023-01-11T19:42:23.793Z,20.38
2023-01-11T19:44:51.461Z,22.67
2023-01-11T19:47:19.388Z,20.67
2023-01-11T19:49:46.716Z,20.45
2023-01-11T19:52:18.902Z,23.88
2023-01-11T19:54:46.820Z,22.95
2023-01-11T19:57:18.895Z,23.90
2023-01-11T19:59:47.631Z,23.75
2023-01-11T20:02:17.616Z,24.20
2023-01-11T20:04:45.034Z,23.00
2023-01-11T20:07:13.685Z,26.40
2023-01-11T20:09:41.132Z,23.98
2023-01-11T20:12:11.026Z,25.25
2023-01-11T20:14:40.303Z,25.27
2023-01-11T20:17:08.501Z,23.70
2023-01-11T20:19:36.230Z,25.83
2023-01-11T20:22:03.909Z,23.80
2023-01-11T20:24:31.334Z,25.67
2023-01-11T20:27:00.947Z,23.70
2023-01-11T20:29:28.471Z,25.52
2023-01-11T20:31:58.210Z,27.77
2023-01-11T20:34:30.613Z,26.55
2023-01-11T20:36:58.704Z,25.92
2023-01-11T20:39:26.979Z,25.00
2023-01-11T20:41:54.257Z,24.70
2023-01-11T20:44:24.369Z,26.25
2023-01-11T20:46:54.003Z,27.20
2023-01-11T20:49:27.219Z,26.23
2023-01-11T20:51:54.913Z,26.38
2023-01-11T20:54:23.204Z,23.23
2023-01-11T20:56:52.285Z,28.67
2023-01-11T20:59:21.100Z,25.17
2023-01-11T21:01:50.202Z,27.60
2023-01-11T21:04:18.438Z,26.23
2023-01-11T21:06:50.542Z,26.83
2023-01-11T21:09:18.310Z,29.08
2023-01-11T21:11:55.558Z,26.08
2023-01-11T21:14:23.407Z,26.77
2023-01-11T21:16:53.171Z,26.02
2023-01-11T21:19:20.901Z,28.50
2023-01-11T21:21:49.857Z,27.10
2023-01-11T21:24:17.543Z,27.15
2023-01-11T21:26:45.801Z,27.10
2023-01-11T21:29:13.672Z,25.75
2023-01-11T21:31:41.716Z,27.70
2023-01-11T21:34:11.303Z,27.33
2023-01-11T21:36:39.808Z,28.75
2023-01-11T21:39:07.401Z,25.50
2023-01-11T21:41:53.251Z,27.83
2023-01-11T21:44:24.104Z,28.25
2023-01-11T21:46:54.001Z,29.02
2023-01-11T21:49:22.482Z,28.20
2023-01-11T21:51:50.618Z,25.27
2023-01-11T21:54:18.843Z,27.23
2023-01-11T21:56:47.312Z,28.60
2023-01-11T21:59:15.098Z,26.48
2023-01-11T22:01:44.001Z,28.50
2023-01-11T22:04:16.070Z,28.80
2023-01-11T22:06:51.161Z,28.00
2023-01-11T22:09:20.405Z,27.15
2023-01-11T22:11:47.811Z,28.88
2023-01-11T22:14:15.999Z,30.00
2023-01-11T22:16:43.368Z,27.10
2023-01-11T22:19:11.205Z,29.92
2023-01-11T22:21:38.760Z,26.10
2023-01-11T22:24:08.950Z,26.38
2023-01-11T22:26:39.004Z,27.42
2023-01-11T22:29:17.651Z,29.00
2023-01-11T22:31:48.804Z,26.75
2023-01-11T22:34:18.108Z,27.77
2023-01-11T22:36:45.589Z,27.35
2023-01-11T22:39:14.748Z,28.08
2023-01-11T22:41:45.270Z,24.85
2023-01-11T22:44:13.278Z,23.67
2023-01-11T22:46:40.873Z,26.92
2023-01-11T22:49:09.338Z,26.98
2023-01-11T22:51:36.609Z,26.35
2023-01-11T22:54:04.564Z,24.60
2023-01-11T22:56:32.706Z,25.17
2023-01-11T22:59:00.269Z,29.75
2023-01-11T23:01:32.989Z,25.60
2023-01-11T23:04:01.723Z,25.95
2023-01-11T23:06:35.534Z,23.52
2023-01-11T23:09:04.897Z,24.65
2023-01-11T23:11:54.858Z,25.45
2023-01-11T23:14:26.687Z,28.00
2023-01-11T23:16:54.043Z,25.45
2023-01-11T23:19:21.625Z,27.10
2023-01-11T23:21:48.982Z,26.45
2023-01-11T23:24:17.415Z,25.30
2023-01-11T23:26:45.145Z,24.70
2023-01-11T23:29:13.230Z,24.67
2023-01-11T23:31:40.925Z,25.67
2023-01-11T23:34:10.123Z,27.23
2023-01-11T23:36:39.991Z,26.85
2023-01-11T23:39:11.649Z,23.55
2023-01-11T23:41:57.611Z,25.38
2023-01-11T23:44:25.285Z,24.83
2023-01-11T23:47:11.472Z,24.77
2023-01-11T23:49:39.455Z,24.92
2023-01-11T23:52:07.544Z,22.55
2023-01-11T23:54:35.142Z,21.08
2023-01-11T23:57:03.247Z,24.25
2023-01-11T23:59:31.389Z,26.13
